Time;durP1;ratioP1;P1;durP2;ratioP2;P2;SDS_P1;SDS_P2;PMS_P1;PMS_P2;Temp;Humidity;BMP_temperature;BMP_pressure;BME280_temperature;BME280_humidity;BME280_pressure;Samples;Min_cycle;Max_cycle;Signal;HPM_P1;HPM_P2
2023/06/28 00:01:14;;;;;;;13.38;10.50;;;23.90;99.90;;;;;;5081863;28;20070;-75
2023/06/28 00:03:43;;;;;;;14.85;11.05;;;24.00;99.90;;;;;;5060022;28;20033;-75
2023/06/28 00:06:09;;;;;;;15.60;11.07;;;24.00;99.90;;;;;;5061102;28;20182;-75
2023/06/28 00:08:35;;;;;;;11.80;10.20;;;24.00;99.90;;;;;;5084898;28;20107;-75
2023/06/28 00:11:01;;;;;;;12.52;10.02;;;24.00;99.90;;;;;;5084424;28;20109;-75
2023/06/28 00:13:26;;;;;;;14.07;11.05;;;24.00;99.90;;;;;;5066624;28;20384;-75
2023/06/28 00:15:52;;;;;;;11.80;10.38;;;24.00;99.90;;;;;;5081728;28;20056;-75
2023/06/28 00:18:18;;;;;;;14.70;10.88;;;24.00;99.90;;;;;;5083586;28;20020;-75
2023/06/28 00:20:44;;;;;;;13.10;10.10;;;24.00;99.90;;;;;;5068046;28;20031;-75
2023/06/28 00:23:11;;;;;;;13.88;11.00;;;24.00;99.90;;;;;;5081974;28;20111;-75
2023/06/28 00:25:37;;;;;;;12.05;10.45;;;24.00;99.90;;;;;;5081576;28;20071;-75
2023/06/28 00:28:04;;;;;;;16.33;11.57;;;24.00;99.90;;;;;;5080319;28;20483;-75
2023/06/28 00:30:30;;;;;;;17.08;10.82;;;24.00;99.90;;;;;;5083023;28;20042;-75
2023/06/28 00:32:56;;;;;;;14.32;11.23;;;24.00;99.90;;;;;;5071147;28;20028;-75
2023/06/28 00:35:21;;;;;;;13.95;11.57;;;24.00;99.90;;;;;;5078772;28;20818;-75
2023/06/28 00:37:47;;;;;;;16.70;12.00;;;23.90;99.90;;;;;;5083728;28;20058;-75
2023/06/28 00:40:13;;;;;;;14.55;11.40;;;23.90;99.90;;;;;;5080560;28;20024;-75
2023/06/28 00:42:42;;;;;;;14.75;11.63;;;24.00;99.90;;;;;;5082056;28;20024;-75
2023/06/28 00:45:13;;;;;;;15.43;11.80;;;24.00;99.90;;;;;;5081977;28;20028;-75
2023/06/28 00:47:40;;;;;;;13.88;11.57;;;24.00;99.90;;;;;;5065760;28;20179;-75
2023/06/28 00:50:06;;;;;;;12.43;10.85;;;24.00;99.90;;;;;;5081828;28;20683;-75
2023/06/28 00:52:32;;;;;;;13.30;11.93;;;24.00;99.90;;;;;;5084902;28;20036;-75
2023/06/28 00:54:59;;;;;;;13.50;11.65;;;23.90;99.90;;;;;;5078930;28;20024;-75
2023/06/28 00:57:25;;;;;;;19.70;11.98;;;23.90;99.90;;;;;;5065325;28;20429;-75
2023/06/28 00:59:53;;;;;;;12.98;11.43;;;23.90;99.90;;;;;;5080506;28;20012;-75
2023/06/28 01:02:19;;;;;;;13.80;11.07;;;24.00;99.90;;;;;;5080719;28;20122;-75
2023/06/28 01:04:45;;;;;;;12.20;10.85;;;24.00;99.90;;;;;;5087417;28;20485;-74
2023/06/28 01:07:12;;;;;;;14.13;11.30;;;24.00;99.90;;;;;;5082173;28;20028;-75
2023/06/28 01:09:39;;;;;;;14.75;12.50;;;24.00;99.90;;;;;;5079633;28;20166;-75
2023/06/28 01:12:06;;;;;;;15.90;11.82;;;24.00;99.90;;;;;;5077627;28;20082;-75
2023/06/28 01:14:32;;;;;;;21.25;11.63;;;24.00;99.90;;;;;;5081737;28;20052;-75
2023/06/28 01:16:58;;;;;;;20.10;12.20;;;24.00;99.90;;;;;;5067053;28;20119;-75
2023/06/28 01:19:29;;;;;;;14.45;11.70;;;24.00;99.90;;;;;;5064144;28;20111;-75
2023/06/28 01:21:58;;;;;;;15.07;11.82;;;23.90;99.90;;;;;;5080502;28;20064;-75
2023/06/28 01:24:25;;;;;;;14.52;10.85;;;23.90;99.90;;;;;;5084781;28;20052;-75
2023/06/28 01:26:52;;;;;;;15.05;11.50;;;23.90;99.90;;;;;;5081079;28;20393;-74
2023/06/28 01:29:24;;;;;;;17.13;12.02;;;23.90;99.90;;;;;;5066948;28;20043;-75
2023/06/28 01:31:52;;;;;;;18.50;11.43;;;23.90;99.90;;;;;;5081411;28;20021;-75
2023/06/28 01:34:18;;;;;;;14.63;12.02;;;23.80;99.90;;;;;;5080780;28;20020;-75
2023/06/28 01:36:46;;;;;;;15.18;11.82;;;23.80;99.90;;;;;;5077528;28;20527;-75
2023/06/28 01:39:13;;;;;;;17.02;11.27;;;23.80;99.90;;;;;;5081647;28;20024;-74
2023/06/28 01:41:39;;;;;;;16.13;12.07;;;23.80;99.90;;;;;;5081434;28;20042;-75
2023/06/28 01:44:05;;;;;;;16.10;12.18;;;23.90;99.90;;;;;;5083912;28;20035;-75
2023/06/28 01:46:31;;;;;;;14.85;11.32;;;23.90;99.90;;;;;;5080609;28;20028;-75
2023/06/28 01:48:57;;;;;;;16.70;12.82;;;23.90;99.90;;;;;;5081787;28;20094;-75
2023/06/28 01:51:23;;;;;;;16.10;11.75;;;23.90;99.90;;;;;;5077104;28;20478;-75
2023/06/28 01:53:49;;;;;;;16.00;11.85;;;23.90;99.90;;;;;;5083401;28;20024;-75
2023/06/28 01:56:14;;;;;;;14.10;11.70;;;23.90;99.90;;;;;;5080572;28;20032;-74
2023/06/28 01:58:40;;;;;;;16.73;11.70;;;23.90;99.90;;;;;;5081127;28;20024;-74
2023/06/28 02:01:06;;;;;;;17.50;11.57;;;23.80;99.90;;;;;;5078099;28;20125;-74
2023/06/28 02:03:31;;;;;;;20.60;11.13;;;23.80;99.90;;;;;;5083347;28;20020;-75
2023/06/28 02:05:57;;;;;;;16.60;11.38;;;23.80;99.90;;;;;;5082458;28;20032;-74
2023/06/28 02:08:23;;;;;;;13.98;12.05;;;23.90;99.90;;;;;;5063601;28;20148;-75
2023/06/28 02:10:49;;;;;;;15.23;10.90;;;23.90;99.90;;;;;;5079517;28;20082;-74
2023/06/28 02:13:14;;;;;;;13.55;10.82;;;23.80;99.90;;;;;;5087026;28;20064;-75
2023/06/28 02:15:40;;;;;;;17.05;11.98;;;23.70;99.90;;;;;;5078067;28;20020;-75
2023/06/28 02:18:07;;;;;;;15.32;11.77;;;23.70;99.90;;;;;;5079217;28;20123;-74
2023/06/28 02:20:33;;;;;;;19.80;11.57;;;23.60;99.90;;;;;;5063668;28;20020;-74
2023/06/28 02:22:58;;;;;;;14.15;11.73;;;23.60;99.90;;;;;;5082927;28;20036;-74
2023/06/28 02:25:24;;;;;;;13.85;12.40;;;23.70;99.90;;;;;;5079481;28;20032;-74
2023/06/28 02:27:50;;;;;;;13.32;11.50;;;23.70;99.90;;;;;;5080741;28;20090;-74
2023/06/28 02:30:16;;;;;;;17.38;11.15;;;23.70;99.90;;;;;;5079858;28;20099;-75
2023/06/28 02:32:43;;;;;;;13.82;10.90;;;23.70;99.90;;;;;;5080168;28;20107;-74
2023/06/28 02:35:08;;;;;;;19.23;12.07;;;23.70;99.90;;;;;;5084560;28;20474;-74
2023/06/28 02:37:34;;;;;;;14.52;11.50;;;23.70;99.90;;;;;;5067095;28;20115;-74
2023/06/28 02:40:00;;;;;;;17.10;10.95;;;23.70;99.90;;;;;;5062092;28;20025;-74
2023/06/28 02:42:26;;;;;;;12.63;11.15;;;23.70;99.90;;;;;;5080709;28;20547;-74
2023/06/28 02:44:51;;;;;;;13.45;11.00;;;23.60;99.90;;;;;;5078015;28;20081;-74
2023/06/28 02:47:17;;;;;;;13.48;11.20;;;23.60;99.90;;;;;;5079837;28;20028;-74
2023/06/28 02:49:43;;;;;;;14.30;10.43;;;23.60;99.90;;;;;;5061695;28;20029;-74
2023/06/28 02:52:09;;;;;;;12.90;10.40;;;23.60;99.90;;;;;;5063893;28;20402;-74
2023/06/28 02:54:34;;;;;;;14.05;11.18;;;23.60;99.90;;;;;;5078564;28;20097;-74
2023/06/28 02:57:00;;;;;;;12.32;9.68;;;23.60;99.90;;;;;;5077723;28;20540;-74
2023/06/28 02:59:26;;;;;;;13.80;10.50;;;23.60;99.90;;;;;;5079975;28;20017;-74
2023/06/28 03:01:52;;;;;;;18.08;10.95;;;23.60;99.90;;;;;;5080609;28;20044;-74
2023/06/28 03:04:17;;;;;;;17.45;11.13;;;23.60;99.90;;;;;;5079062;28;20088;-74
2023/06/28 03:06:49;;;;;;;14.48;10.45;;;23.50;99.90;;;;;;5080634;28;20028;-74
2023/06/28 03:09:14;;;;;;;14.07;10.60;;;23.50;99.90;;;;;;5080107;28;20372;-74
2023/06/28 03:11:40;;;;;;;16.60;10.32;;;23.50;99.90;;;;;;5079532;28;20085;-74
2023/06/28 03:14:06;;;;;;;11.48;10.13;;;23.60;99.90;;;;;;5080041;28;20093;-74
2023/06/28 03:16:31;;;;;;;13.38;10.77;;;23.60;99.90;;;;;;5079042;28;20024;-75
2023/06/28 03:18:57;;;;;;;13.15;10.95;;;23.60;99.90;;;;;;5081385;28;20026;-74
2023/06/28 03:21:23;;;;;;;14.50;10.95;;;23.50;99.90;;;;;;5079236;28;20024;-74
2023/06/28 03:23:48;;;;;;;12.38;10.55;;;23.50;99.90;;;;;;5079020;28;20096;-74
2023/06/28 03:26:14;;;;;;;17.02;11.25;;;23.40;99.90;;;;;;5078805;28;20115;-75
2023/06/28 03:28:42;;;;;;;13.15;11.13;;;23.40;99.90;;;;;;5063110;28;20486;-74
2023/06/28 03:31:08;;;;;;;14.30;11.10;;;23.40;99.90;;;;;;5086062;28;20039;-74
2023/06/28 03:33:34;;;;;;;16.23;11.05;;;23.40;99.90;;;;;;5086334;28;20028;-74
2023/06/28 03:35:59;;;;;;;13.32;11.55;;;23.30;99.90;;;;;;5087125;28;20055;-74
2023/06/28 03:38:25;;;;;;;15.25;11.15;;;23.30;99.90;;;;;;5083040;28;20027;-74
2023/06/28 03:40:51;;;;;;;14.93;11.15;;;23.30;99.90;;;;;;5083053;28;20024;-74
2023/06/28 03:43:16;;;;;;;13.52;12.10;;;23.40;99.90;;;;;;5081136;28;20429;-74
2023/06/28 03:45:42;;;;;;;18.70;11.57;;;23.40;99.90;;;;;;5086580;28;20060;-74
2023/06/28 03:48:12;;;;;;;14.35;10.80;;;23.30;99.90;;;;;;5085367;28;20098;-75
2023/06/28 03:50:41;;;;;;;14.38;11.27;;;23.30;99.90;;;;;;5081686;28;20424;-74
2023/06/28 03:53:09;;;;;;;18.90;11.55;;;23.30;99.90;;;;;;5082007;28;20470;-74
2023/06/28 03:55:36;;;;;;;13.25;11.77;;;23.20;99.90;;;;;;5087074;28;20032;-74
2023/06/28 03:58:02;;;;;;;20.88;11.80;;;23.20;99.90;;;;;;5086160;28;20387;-74
2023/06/28 04:00:28;;;;;;;13.02;11.35;;;23.20;99.90;;;;;;5079048;28;20032;-75
2023/06/28 04:02:53;;;;;;;19.80;11.07;;;23.20;99.90;;;;;;5067483;28;20048;-75
2023/06/28 04:05:19;;;;;;;13.95;10.68;;;23.20;99.90;;;;;;5083989;28;20066;-74
2023/06/28 04:07:58;;;;;;;15.23;12.35;;;23.30;99.90;;;;;;5083023;28;20592;-74
2023/06/28 04:10:24;;;;;;;14.23;11.48;;;23.20;99.90;;;;;;5064819;28;20035;-74
2023/06/28 04:12:50;;;;;;;16.08;11.75;;;23.30;99.90;;;;;;5083981;28;20390;-74
2023/06/28 04:15:16;;;;;;;15.30;11.38;;;23.30;99.90;;;;;;5083619;28;20028;-74
2023/06/28 04:17:42;;;;;;;15.35;11.20;;;23.30;99.90;;;;;;5084473;28;20098;-74
2023/06/28 04:20:08;;;;;;;17.67;12.05;;;23.20;99.90;;;;;;5086314;28;20013;-75
2023/06/28 04:22:34;;;;;;;16.23;11.32;;;23.30;99.90;;;;;;5081677;28;20052;-74
2023/06/28 04:25:00;;;;;;;15.57;11.90;;;23.30;99.90;;;;;;5083480;28;20081;-74
2023/06/28 04:27:26;;;;;;;17.67;11.30;;;23.30;99.90;;;;;;5082278;28;20036;-74
2023/06/28 04:29:52;;;;;;;17.55;12.00;;;23.30;99.90;;;;;;5082400;28;20108;-74
2023/06/28 04:32:26;;;;;;;17.33;11.68;;;23.30;99.90;;;;;;5062999;28;20112;-74
2023/06/28 04:34:56;;;;;;;18.02;11.43;;;23.30;99.90;;;;;;5081101;28;20033;-74
2023/06/28 04:37:22;;;;;;;15.95;12.25;;;23.40;99.90;;;;;;5084411;28;20027;-74
2023/06/28 04:39:48;;;;;;;15.95;12.18;;;23.40;99.90;;;;;;5080595;28;20025;-74
2023/06/28 04:42:14;;;;;;;15.10;11.93;;;23.40;99.90;;;;;;5063259;28;20017;-74
2023/06/28 04:44:50;;;;;;;17.77;12.00;;;23.40;99.90;;;;;;5083595;28;20106;-74
2023/06/28 04:47:16;;;;;;;17.98;12.45;;;23.40;99.90;;;;;;5085023;28;20020;-74
2023/06/28 04:49:47;;;;;;;16.00;12.65;;;23.30;99.90;;;;;;5080742;28;20099;-74
2023/06/28 04:52:14;;;;;;;19.33;11.43;;;23.40;99.90;;;;;;5082195;28;20017;-74
2023/06/28 04:54:41;;;;;;;12.55;10.23;;;23.40;99.90;;;;;;5078892;28;20020;-74
2023/06/28 04:57:07;;;;;;;18.30;12.15;;;23.40;99.90;;;;;;5085320;28;20024;-74
2023/06/28 04:59:33;;;;;;;15.50;12.32;;;23.50;99.90;;;;;;5082218;28;20017;-74
2023/06/28 05:01:59;;;;;;;15.50;11.68;;;23.50;99.90;;;;;;5080601;28;20040;-74
2023/06/28 05:04:25;;;;;;;14.65;11.48;;;23.50;99.90;;;;;;5078569;28;20108;-74
2023/06/28 05:06:53;;;;;;;16.98;12.02;;;23.50;99.90;;;;;;5082799;28;20031;-74
2023/06/28 05:09:19;;;;;;;18.77;10.85;;;23.60;99.90;;;;;;5084891;28;20051;-73
2023/06/28 05:11:45;;;;;;;15.20;10.90;;;23.60;99.90;;;;;;5080211;28;20423;-74
2023/06/28 05:14:11;;;;;;;12.95;11.60;;;23.60;99.90;;;;;;5083270;28;20169;-73
2023/06/28 05:16:36;;;;;;;14.27;11.15;;;23.70;99.90;;;;;;5082658;28;20024;-74
2023/06/28 05:19:02;;;;;;;12.93;10.85;;;23.70;99.90;;;;;;5087142;28;20020;-74
2023/06/28 05:21:28;;;;;;;16.80;11.57;;;23.70;99.90;;;;;;5069545;28;20020;-74
2023/06/28 05:23:53;;;;;;;17.45;11.10;;;23.70;99.90;;;;;;5085488;28;20031;-74
2023/06/28 05:26:19;;;;;;;13.77;11.77;;;23.70;99.90;;;;;;5089332;28;20032;-73
2023/06/28 05:28:45;;;;;;;11.75;10.25;;;23.70;99.90;;;;;;5091444;28;20412;-74
2023/06/28 05:31:10;;;;;;;13.82;10.55;;;24.30;99.90;;;;;;5076682;28;20105;-74
2023/06/28 05:33:38;;;;;;;15.20;10.60;;;23.90;99.90;;;;;;5083556;28;20115;-74
2023/06/28 05:36:04;;;;;;;12.85;10.23;;;23.90;99.90;;;;;;5076433;28;20490;-74
2023/06/28 05:38:30;;;;;;;18.23;10.15;;;23.90;99.90;;;;;;5083210;28;20024;-74
2023/06/28 05:41:14;;;;;;;15.00;10.48;;;24.00;99.90;;;;;;5081589;28;20081;-74
2023/06/28 05:43:43;;;;;;;13.15;11.70;;;24.00;99.90;;;;;;5082318;28;20027;-74
2023/06/28 05:46:08;;;;;;;14.15;11.68;;;23.90;99.90;;;;;;5078863;28;20035;-74
2023/06/28 05:48:34;;;;;;;13.23;10.20;;;23.90;99.90;;;;;;5078020;28;20020;-73
2023/06/28 05:51:00;;;;;;;11.57;10.10;;;23.80;99.90;;;;;;5073431;28;20032;-74
2023/06/28 05:53:26;;;;;;;14.43;10.20;;;24.00;99.90;;;;;;5080694;28;20024;-74
2023/06/28 05:55:51;;;;;;;11.85;9.93;;;24.00;99.90;;;;;;5076004;28;20028;-73
2023/06/28 05:58:18;;;;;;;15.18;9.50;;;24.10;99.90;;;;;;5080154;28;20074;-74
2023/06/28 06:00:44;;;;;;;14.60;9.50;;;24.10;99.90;;;;;;5084995;28;20422;-74
2023/06/28 06:03:10;;;;;;;13.60;7.40;;;24.10;99.90;;;;;;5064607;28;20070;-74
2023/06/28 06:05:37;;;;;;;11.88;7.18;;;24.20;99.90;;;;;;5080617;28;20024;-73
2023/06/28 06:08:04;;;;;;;7.80;6.65;;;24.20;99.90;;;;;;5075466;28;20365;-73
2023/06/28 06:10:30;;;;;;;8.57;6.82;;;24.20;99.90;;;;;;5078327;28;20039;-74
2023/06/28 06:12:56;;;;;;;7.70;5.68;;;24.20;99.90;;;;;;5076476;28;20055;-74
2023/06/28 06:15:22;;;;;;;6.10;5.43;;;24.30;99.90;;;;;;5083378;28;20139;-74
2023/06/28 06:17:49;;;;;;;6.60;4.88;;;24.30;99.90;;;;;;5077271;28;20103;-74
2023/06/28 06:20:15;;;;;;;5.43;4.40;;;24.40;99.90;;;;;;5080172;28;20034;-74
2023/06/28 06:22:44;;;;;;;7.00;3.78;;;24.40;99.90;;;;;;5070948;28;20028;-73
2023/06/28 06:25:10;;;;;;;6.60;4.88;;;24.40;99.90;;;;;;5059531;28;20482;-74
2023/06/28 06:27:36;;;;;;;5.95;4.50;;;24.50;99.90;;;;;;5079429;28;20021;-74
2023/06/28 06:30:03;;;;;;;6.47;4.10;;;24.50;99.90;;;;;;5075845;28;20481;-73
2023/06/28 06:32:29;;;;;;;6.47;4.38;;;24.60;99.90;;;;;;5073301;28;20643;-74
2023/06/28 06:34:57;;;;;;;5.10;3.92;;;24.60;99.90;;;;;;5080053;28;20021;-73
2023/06/28 06:37:24;;;;;;;4.43;4.03;;;24.60;99.90;;;;;;5081780;28;20026;-74
2023/06/28 06:39:50;;;;;;;4.28;3.90;;;24.50;99.90;;;;;;5086107;28;20129;-73
2023/06/28 06:42:16;;;;;;;5.47;3.70;;;24.60;99.90;;;;;;5078027;28;20521;-74
2023/06/28 06:44:42;;;;;;;5.47;3.97;;;24.60;99.90;;;;;;5078580;28;20119;-73
2023/06/28 06:47:08;;;;;;;7.13;3.80;;;24.50;99.90;;;;;;5087230;28;20115;-76
2023/06/28 06:49:33;;;;;;;5.05;4.25;;;24.60;99.90;;;;;;5082309;28;20462;-76
2023/06/28 06:51:59;;;;;;;7.38;4.68;;;24.60;99.90;;;;;;5066698;28;20120;-76
2023/06/28 06:54:28;;;;;;;9.35;5.20;;;24.70;99.90;;;;;;5078051;28;20036;-76
2023/06/28 06:56:54;;;;;;;5.85;5.28;;;24.70;99.90;;;;;;5072571;28;20627;-76
2023/06/28 06:59:23;;;;;;;9.05;6.50;;;24.80;99.90;;;;;;5073812;28;20028;-76
2023/06/28 07:01:50;;;;;;;8.68;5.57;;;24.70;99.90;;;;;;5086107;28;20076;-76
2023/06/28 07:04:15;;;;;;;8.85;6.72;;;24.80;99.90;;;;;;5084362;28;20052;-76
2023/06/28 07:06:42;;;;;;;7.53;5.82;;;24.80;99.90;;;;;;5081014;28;20505;-76
2023/06/28 07:09:08;;;;;;;13.68;5.75;;;24.80;99.90;;;;;;5061525;28;20482;-76
2023/06/28 07:11:33;;;;;;;12.05;6.97;;;24.80;99.90;;;;;;5093590;28;20031;-76
2023/06/28 07:13:59;;;;;;;9.52;6.20;;;24.80;99.90;;;;;;5083341;28;20068;-76
2023/06/28 07:16:25;;;;;;;8.70;5.93;;;24.80;99.90;;;;;;5084168;28;20016;-75
2023/06/28 07:18:54;;;;;;;6.00;5.47;;;24.90;99.90;;;;;;5076374;28;20025;-74
2023/06/28 07:21:20;;;;;;;7.05;5.20;;;24.90;99.90;;;;;;5083870;28;20074;-74
2023/06/28 07:23:46;;;;;;;6.18;5.57;;;25.00;99.90;;;;;;5095905;28;20104;-75
2023/06/28 07:26:14;;;;;;;10.07;6.10;;;25.00;99.90;;;;;;5076258;28;20478;-75
2023/06/28 07:28:40;;;;;;;9.23;5.80;;;25.00;99.90;;;;;;5080021;28;20032;-75
2023/06/28 07:31:06;;;;;;;5.32;4.82;;;25.10;99.90;;;;;;5090674;28;20035;-75
2023/06/28 07:33:32;;;;;;;5.25;4.75;;;25.10;99.90;;;;;;5094755;28;20028;-75
2023/06/28 07:35:58;;;;;;;6.75;5.07;;;25.20;99.90;;;;;;5092141;28;20024;-75
2023/06/28 07:38:23;;;;;;;7.30;5.00;;;25.30;99.90;;;;;;5090167;28;20016;-75
2023/06/28 07:40:50;;;;;;;8.00;5.15;;;25.30;99.90;;;;;;5081518;28;20471;-75
2023/06/28 07:43:18;;;;;;;7.15;5.25;;;25.30;99.90;;;;;;5073047;28;20028;-75
2023/06/28 07:45:43;;;;;;;6.80;5.50;;;25.40;99.90;;;;;;5073788;28;20029;-75
2023/06/28 07:48:09;;;;;;;6.85;5.05;;;25.40;99.90;;;;;;5076585;28;20031;-75
2023/06/28 07:50:36;;;;;;;9.13;6.05;;;25.40;99.90;;;;;;5080106;28;20032;-75
2023/06/28 07:53:02;;;;;;;8.63;5.97;;;25.40;99.90;;;;;;5075109;28;20082;-75
2023/06/28 07:55:29;;;;;;;7.10;5.80;;;25.50;99.90;;;;;;5062637;28;20058;-75
2023/06/28 07:57:57;;;;;;;6.85;6.15;;;25.50;99.90;;;;;;5093829;28;20024;-75
2023/06/28 08:00:25;;;;;;;7.28;6.30;;;25.60;99.90;;;;;;5092330;28;20508;-75
2023/06/28 08:02:50;;;;;;;11.57;6.43;;;25.70;99.90;;;;;;5093367;28;20094;-75
2023/06/28 08:05:16;;;;;;;6.63;5.63;;;25.70;99.90;;;;;;5085650;28;20028;-75
2023/06/28 08:07:42;;;;;;;7.30;5.75;;;25.70;99.90;;;;;;5091571;28;20028;-75
2023/06/28 08:10:08;;;;;;;5.75;5.22;;;25.80;99.90;;;;;;5086033;28;20097;-75
2023/06/28 08:12:34;;;;;;;5.03;4.63;;;25.90;99.90;;;;;;5066291;28;20021;-75
2023/06/28 08:14:59;;;;;;;5.90;4.63;;;26.00;99.90;;;;;;5085776;28;20768;-75
2023/06/28 08:17:26;;;;;;;5.07;4.57;;;26.10;99.90;;;;;;5089631;28;20026;-74
2023/06/28 08:19:54;;;;;;;6.40;4.55;;;26.10;99.90;;;;;;5091877;28;20481;-75
2023/06/28 08:22:20;;;;;;;5.20;4.18;;;26.10;99.90;;;;;;5087924;28;20039;-74
2023/06/28 08:24:46;;;;;;;5.57;4.50;;;26.10;99.90;;;;;;5085580;28;20397;-74
2023/06/28 08:27:11;;;;;;;4.60;4.20;;;26.10;99.90;;;;;;5080656;28;20024;-74
2023/06/28 08:29:37;;;;;;;6.07;4.38;;;26.10;99.90;;;;;;5066810;28;20026;-74
2023/06/28 08:32:03;;;;;;;5.82;4.80;;;26.10;99.90;;;;;;5066893;28;20063;-74
2023/06/28 08:34:29;;;;;;;8.77;4.55;;;26.10;99.90;;;;;;5089299;28;20035;-75
2023/06/28 08:36:54;;;;;;;5.20;4.50;;;26.00;99.90;;;;;;5094058;28;20085;-74
2023/06/28 08:39:20;;;;;;;4.72;4.32;;;26.00;99.90;;;;;;5090026;28;20028;-75
2023/06/28 08:41:48;;;;;;;3.95;3.40;;;26.10;99.90;;;;;;5087583;28;20055;-75
2023/06/28 08:44:16;;;;;;;4.97;3.70;;;26.10;99.90;;;;;;5083713;28;20203;-74
2023/06/28 08:46:44;;;;;;;5.57;4.00;;;26.10;99.90;;;;;;5085063;28;20478;-74
2023/06/28 08:49:11;;;;;;;4.32;3.92;;;26.20;99.90;;;;;;5067207;28;20051;-74
2023/06/28 08:51:39;;;;;;;5.28;4.05;;;26.20;99.90;;;;;;5085475;28;20077;-74
2023/06/28 08:54:07;;;;;;;4.07;3.63;;;26.10;99.90;;;;;;5076121;28;20049;-75
2023/06/28 08:56:33;;;;;;;7.47;5.20;;;26.10;99.90;;;;;;5087909;28;20020;-74
2023/06/28 08:58:59;;;;;;;7.13;3.45;;;26.20;99.90;;;;;;5091081;28;20027;-74
2023/06/28 09:01:26;;;;;;;7.28;4.13;;;26.20;99.90;;;;;;5073454;28;20235;-74
2023/06/28 09:03:52;;;;;;;5.15;3.97;;;26.30;99.90;;;;;;5090551;28;20028;-75
2023/06/28 09:06:17;;;;;;;5.93;3.60;;;26.40;99.90;;;;;;5064618;28;20271;-75
2023/06/28 09:08:43;;;;;;;5.65;4.07;;;26.40;99.90;;;;;;5070104;28;20497;-75
2023/06/28 09:11:13;;;;;;;4.63;4.03;;;26.40;99.90;;;;;;5078441;28;20032;-74
2023/06/28 09:13:39;;;;;;;4.97;3.47;;;26.50;99.90;;;;;;5088215;28;20078;-74
2023/06/28 09:16:09;;;;;;;7.03;3.45;;;26.70;99.90;;;;;;5062691;28;20066;-74
2023/06/28 09:18:38;;;;;;;3.22;2.95;;;26.80;99.90;;;;;;5080076;28;20020;-74
2023/06/28 09:21:04;;;;;;;4.13;3.25;;;26.90;99.90;;;;;;5080580;28;20020;-74
2023/06/28 09:23:32;;;;;;;6.10;3.28;;;27.00;99.90;;;;;;5077488;28;20024;-74
2023/06/28 09:25:58;;;;;;;3.72;2.88;;;26.90;99.90;;;;;;5082809;28;20028;-75
2023/06/28 09:28:35;;;;;;;3.75;2.85;;;26.90;99.90;;;;;;5090622;28;20562;-74
2023/06/28 09:31:04;;;;;;;3.13;2.92;;;27.00;99.90;;;;;;5084068;28;20024;-74
2023/06/28 09:33:30;;;;;;;4.28;3.28;;;27.00;99.90;;;;;;5068355;28;20509;-74
2023/06/28 09:35:57;;;;;;;6.70;3.35;;;26.90;99.90;;;;;;5057529;28;20063;-74
2023/06/28 09:38:24;;;;;;;3.72;3.42;;;26.80;99.90;;;;;;5076864;28;20017;-74
2023/06/28 09:41:00;;;;;;;3.17;2.90;;;26.70;99.90;;;;;;5060339;28;20033;-74
2023/06/28 09:43:33;;;;;;;3.20;3.00;;;26.70;99.90;;;;;;5080304;28;20028;-74
2023/06/28 09:46:14;;;;;;;4.72;3.30;;;26.80;99.90;;;;;;5060777;28;20428;-74
2023/06/28 09:48:49;;;;;;;5.97;3.85;;;26.90;99.90;;;;;;5076623;28;20020;-74
2023/06/28 09:51:18;;;;;;;5.07;3.17;;;27.00;99.90;;;;;;5075103;28;20089;-74
2023/06/28 09:53:56;;;;;;;5.38;3.50;;;27.00;99.90;;;;;;5076142;28;20094;-74
2023/06/28 09:56:35;;;;;;;4.20;3.67;;;27.10;99.90;;;;;;5071188;28;20111;-74
2023/06/28 09:59:05;;;;;;;3.22;2.92;;;27.30;99.90;;;;;;5075658;28;20028;-74
2023/06/28 10:01:32;;;;;;;4.40;3.53;;;27.30;99.90;;;;;;5069854;28;20048;-74
2023/06/28 10:03:58;;;;;;;3.92;2.95;;;27.20;99.90;;;;;;5077457;28;20029;-74
2023/06/28 10:06:26;;;;;;;6.25;3.60;;;27.30;99.90;;;;;;5071771;28;20035;-74
2023/06/28 10:08:54;;;;;;;5.70;3.97;;;27.40;99.90;;;;;;5077600;28;20501;-74
2023/06/28 10:11:21;;;;;;;3.40;3.05;;;27.30;99.90;;;;;;5082146;28;20026;-74
2023/06/28 10:13:48;;;;;;;7.00;3.28;;;27.40;99.90;;;;;;5090798;28;20032;-74
2023/06/28 10:16:18;;;;;;;3.83;3.22;;;27.60;99.90;;;;;;5063424;28;20023;-74
2023/06/28 10:18:44;;;;;;;3.08;2.88;;;27.50;99.90;;;;;;5085411;28;20055;-74
2023/06/28 10:21:10;;;;;;;3.40;2.90;;;27.50;99.90;;;;;;5083649;28;20038;-74
2023/06/28 10:23:40;;;;;;;5.53;3.08;;;27.40;99.90;;;;;;5075202;28;20029;-74
2023/06/28 10:26:06;;;;;;;5.25;3.30;;;27.50;99.90;;;;;;5076102;28;20176;-74
2023/06/28 10:28:33;;;;;;;4.32;3.17;;;27.50;99.90;;;;;;5079560;28;20048;-74
2023/06/28 10:31:00;;;;;;;4.70;3.20;;;27.60;99.90;;;;;;5073754;28;20780;-74
2023/06/28 10:33:31;;;;;;;3.50;3.22;;;27.60;99.90;;;;;;5077453;28;20020;-74
2023/06/28 10:36:00;;;;;;;3.65;3.38;;;27.60;99.90;;;;;;5057879;28;20476;-74
2023/06/28 10:38:27;;;;;;;3.70;3.40;;;27.60;99.90;;;;;;5078163;28;20240;-74
2023/06/28 10:40:54;;;;;;;3.83;3.15;;;27.60;99.30;;;;;;5058949;28;20063;-74
2023/06/28 10:43:22;;;;;;;3.10;2.90;;;27.50;99.70;;;;;;5058374;28;20115;-73
2023/06/28 10:45:48;;;;;;;5.15;3.65;;;27.60;99.90;;;;;;5073318;28;20016;-74
2023/06/28 10:48:19;;;;;;;3.50;3.28;;;27.60;99.50;;;;;;5080446;28;20501;-74
2023/06/28 10:50:44;;;;;;;3.67;3.38;;;27.70;99.50;;;;;;5076844;28;20519;-74
2023/06/28 10:53:25;;;;;;;5.95;3.30;;;27.80;99.80;;;;;;5077096;28;20162;-74
2023/06/28 10:56:09;;;;;;;3.55;3.33;;;27.80;98.50;;;;;;5065479;28;20039;-74
2023/06/28 10:58:41;;;;;;;3.78;3.42;;;27.80;98.50;;;;;;5078599;28;20394;-74
2023/06/28 11:01:08;;;;;;;3.45;3.22;;;27.70;98.60;;;;;;5072218;28;20126;-74
2023/06/28 11:03:39;;;;;;;3.50;3.30;;;27.80;98.80;;;;;;5076564;28;20020;-74
2023/06/28 11:06:05;;;;;;;3.80;3.50;;;27.60;98.60;;;;;;5071902;28;20024;-74
2023/06/28 11:08:42;;;;;;;4.88;3.63;;;27.60;99.00;;;;;;5077393;28;20487;-74
2023/06/28 11:11:10;;;;;;;4.68;3.60;;;27.70;99.00;;;;;;5082554;28;20123;-74
2023/06/28 11:13:44;;;;;;;3.97;3.53;;;27.60;99.40;;;;;;5077734;28;20029;-74
2023/06/28 11:16:13;;;;;;;3.08;2.88;;;27.70;99.20;;;;;;5075044;28;20020;-74
2023/06/28 11:18:39;;;;;;;5.05;3.90;;;27.70;98.50;;;;;;5076174;28;20024;-74
2023/06/28 11:21:05;;;;;;;9.13;3.60;;;27.90;99.50;;;;;;5068612;28;20039;-74
2023/06/28 11:23:42;;;;;;;6.15;3.20;;;28.20;98.90;;;;;;5075319;28;20028;-74
2023/06/28 11:26:32;;;;;;;5.75;3.63;;;28.40;97.80;;;;;;5069121;28;20028;-74
2023/06/28 11:28:58;;;;;;;3.85;2.83;;;28.50;97.70;;;;;;5077485;28;20016;-74
2023/06/28 11:31:25;;;;;;;3.08;2.80;;;28.40;96.10;;;;;;5077912;28;20363;-74
2023/06/28 11:33:56;;;;;;;3.28;2.97;;;28.30;96.60;;;;;;5081029;28;20024;-74
2023/06/28 11:36:25;;;;;;;3.97;2.90;;;28.60;97.90;;;;;;5077185;28;20070;-74
2023/06/28 11:38:51;;;;;;;5.20;3.28;;;28.90;98.30;;;;;;5075441;28;20034;-74
2023/06/28 11:41:17;;;;;;;3.20;2.90;;;29.10;96.00;;;;;;5071852;28;20020;-74
2023/06/28 11:43:47;;;;;;;3.05;2.85;;;29.10;95.80;;;;;;5079481;28;20023;-74
2023/06/28 11:46:21;;;;;;;3.60;3.28;;;28.90;94.50;;;;;;5071934;28;20032;-74
2023/06/28 11:48:48;;;;;;;3.75;2.85;;;28.70;94.40;;;;;;5074503;28;20437;-74
2023/06/28 11:51:14;;;;;;;2.83;2.63;;;28.60;94.80;;;;;;5082833;28;20034;-74
2023/06/28 11:53:40;;;;;;;3.50;3.20;;;28.50;93.90;;;;;;5077846;28;20016;-74
2023/06/28 11:56:06;;;;;;;5.93;3.30;;;28.40;95.10;;;;;;5074274;28;20028;-74
2023/06/28 11:58:34;;;;;;;3.00;2.75;;;28.40;94.50;;;;;;5072532;28;20512;-74
2023/06/28 12:01:01;;;;;;;6.95;3.15;;;28.30;94.40;;;;;;5078472;28;20087;-74
2023/06/28 12:03:37;;;;;;;3.03;2.70;;;28.30;94.60;;;;;;5080224;28;20104;-74
2023/06/28 12:06:05;;;;;;;3.00;2.80;;;28.20;93.60;;;;;;5081856;28;20032;-74
2023/06/28 12:08:35;;;;;;;2.92;2.72;;;28.10;94.50;;;;;;5080314;28;20755;-74
2023/06/28 12:11:07;;;;;;;3.85;2.53;;;28.00;94.00;;;;;;5081477;28;20020;-74
2023/06/28 12:13:33;;;;;;;3.70;2.88;;;28.00;94.70;;;;;;5078864;28;20111;-74
2023/06/28 12:16:11;;;;;;;3.33;2.85;;;27.80;94.10;;;;;;5078859;28;20500;-74
2023/06/28 12:18:58;;;;;;;2.95;2.72;;;27.80;94.90;;;;;;5079110;28;20020;-74
2023/06/28 12:21:25;;;;;;;3.63;2.60;;;27.70;94.00;;;;;;5078892;28;20020;-74
2023/06/28 12:23:52;;;;;;;2.80;2.58;;;27.60;95.10;;;;;;5078953;28;20107;-74
2023/06/28 12:26:18;;;;;;;4.40;3.00;;;27.50;95.00;;;;;;5078756;28;20701;-74
2023/06/28 12:28:52;;;;;;;3.47;2.50;;;27.50;95.20;;;;;;5080115;28;20020;-74
2023/06/28 12:31:18;;;;;;;4.50;3.10;;;27.40;95.50;;;;;;5085948;28;20045;-74
2023/06/28 12:33:51;;;;;;;4.10;3.15;;;27.30;96.00;;;;;;5078478;28;20020;-74
2023/06/28 12:36:18;;;;;;;5.00;3.00;;;27.30;96.20;;;;;;5073292;28;20025;-74
2023/06/28 12:38:45;;;;;;;3.13;2.83;;;27.20;96.40;;;;;;5077037;28;20028;-74